Time;durP1;ratioP1;P1;durP2;ratioP2;P2;SDS_P1;SDS_P2;PMS_P1;PMS_P2;Temp;Humidity;BMP_temperature;BMP_pressure;BME280_temperature;BME280_humidity;BME280_pressure;Samples;Min_cycle;Max_cycle;Signal;HPM_P1;HPM_P2
2022/11/28 00:00:17;;;;;;;59.63;16.52;;;;;;;9.68;100.00;98057.22;5080744;28;20032;-85
2022/11/28 00:02:42;;;;;;;69.57;19.13;;;;;;;9.54;100.00;98058.34;5062359;28;20063;-86
2022/11/28 00:05:10;;;;;;;50.05;15.02;;;;;;;9.73;100.00;98064.44;5082859;28;20035;-86
2022/11/28 00:07:37;;;;;;;58.28;15.98;;;;;;;9.72;100.00;98050.53;5066993;28;20485;-86
2022/11/28 00:10:06;;;;;;;61.42;16.80;;;;;;;9.63;100.00;98046.56;5082109;28;20043;-85
2022/11/28 00:12:33;;;;;;;58.10;16.60;;;;;;;9.69;100.00;98048.34;5082510;28;20031;-86
2022/11/28 00:14:58;;;;;;;55.75;15.25;;;;;;;9.71;100.00;98043.69;5079761;28;20424;-85
2022/11/28 00:17:24;;;;;;;52.05;15.93;;;;;;;9.63;100.00;98035.28;5078908;28;20089;-85
2022/11/28 00:19:49;;;;;;;65.47;17.77;;;;;;;9.70;100.00;98028.19;5079916;28;20046;-85
2022/11/28 00:22:15;;;;;;;68.07;18.85;;;;;;;9.68;100.00;98038.09;5062546;28;20094;-85
2022/11/28 00:24:41;;;;;;;64.20;17.00;;;;;;;9.58;100.00;98047.19;5062400;28;20474;-86
2022/11/28 00:27:06;;;;;;;70.43;17.20;;;;;;;9.68;100.00;98036.25;5076849;28;20024;-87
2022/11/28 00:29:32;;;;;;;72.10;18.20;;;;;;;9.70;100.00;98030.81;5081998;28;20478;-87
2022/11/28 00:31:57;;;;;;;62.30;17.83;;;;;;;9.70;100.00;98025.56;5079491;28;20405;-87
2022/11/28 00:34:23;;;;;;;60.13;18.40;;;;;;;9.71;100.00;98021.94;5077236;28;20029;-87
2022/11/28 00:36:50;;;;;;;58.45;17.75;;;;;;;9.66;100.00;98021.78;5063372;28;20402;-85
2022/11/28 00:39:16;;;;;;;56.53;16.38;;;;;;;9.55;100.00;98024.06;5082758;28;20034;-85
2022/11/28 00:41:43;;;;;;;71.80;17.38;;;;;;;9.67;100.00;98026.00;5083177;28;20028;-85
2022/11/28 00:44:09;;;;;;;55.47;16.33;;;;;;;9.53;100.00;98013.00;5078035;28;20033;-88
2022/11/28 00:46:35;;;;;;;53.45;15.35;;;;;;;9.50;100.00;98025.69;5077389;28;20042;-88
2022/11/28 00:49:01;;;;;;;49.67;15.68;;;;;;;9.57;100.00;98022.03;5087308;28;20116;-88
2022/11/28 00:51:30;;;;;;;57.22;16.50;;;;;;;9.61;100.00;98030.28;5087904;28;20032;-87
2022/11/28 00:54:00;;;;;;;46.97;14.60;;;;;;;9.53;100.00;98023.47;5063734;28;20033;-88
2022/11/28 00:56:29;;;;;;;49.50;15.77;;;;;;;9.43;100.00;98008.22;5066468;28;20067;-88
2022/11/28 00:58:55;;;;;;;60.83;17.38;;;;;;;9.40;100.00;98018.31;5088427;28;20037;-86
2022/11/28 01:01:24;;;;;;;61.05;16.30;;;;;;;9.39;100.00;98021.94;5079815;28;20031;-89
2022/11/28 01:03:51;;;;;;;46.38;15.70;;;;;;;9.34;100.00;98024.41;5059423;28;20031;-87
2022/11/28 01:06:30;;;;;;;56.50;16.42;;;;;;;9.39;100.00;98014.91;5081754;28;20031;-87
2022/11/28 01:08:58;;;;;;;64.53;17.02;;;;;;;9.33;100.00;98025.41;5083381;28;20196;-86
2022/11/28 01:11:25;;;;;;;48.63;15.88;;;;;;;9.25;100.00;98021.25;5070657;28;20039;-87
2022/11/28 01:13:54;;;;;;;64.70;18.23;;;;;;;9.23;100.00;98007.56;5082412;28;20029;-86
2022/11/28 01:16:19;;;;;;;65.47;17.27;;;;;;;9.13;100.00;98008.03;5065109;28;20028;-88
2022/11/28 01:18:45;;;;;;;49.90;15.35;;;;;;;9.22;100.00;98001.50;5084314;28;20031;-87
2022/11/28 01:21:10;;;;;;;65.82;18.40;;;;;;;9.12;100.00;97995.94;5081484;28;20028;-87
2022/11/28 01:23:37;;;;;;;66.78;18.35;;;;;;;9.24;100.00;98012.59;5079200;28;20394;-87
2022/11/28 01:26:05;;;;;;;44.70;15.52;;;;;;;9.23;100.00;98018.03;5067376;28;20048;-86
2022/11/28 01:28:31;;;;;;;45.80;15.05;;;;;;;9.11;100.00;98005.59;5068556;28;20037;-86
2022/11/28 01:31:02;;;;;;;70.13;18.17;;;;;;;9.11;100.00;98008.22;5063556;28;20045;-87
2022/11/28 01:33:28;;;;;;;73.85;18.83;;;;;;;9.06;100.00;98022.97;5059630;28;20048;-88
2022/11/28 01:35:56;;;;;;;56.58;17.80;;;;;;;9.25;100.00;98022.06;5064474;28;20086;-87
2022/11/28 01:38:22;;;;;;;69.55;18.42;;;;;;;9.27;100.00;98019.22;5082939;28;20470;-87
2022/11/28 01:40:48;;;;;;;42.00;15.38;;;;;;;9.48;100.00;98018.06;5079004;28;20034;-86
2022/11/28 01:43:15;;;;;;;70.63;17.80;;;;;;;9.50;100.00;98015.22;5078945;28;20024;-87
2022/11/28 01:45:40;;;;;;;56.08;17.17;;;;;;;9.55;100.00;98008.34;5082969;28;20082;-87
2022/11/28 01:48:10;;;;;;;57.40;15.75;;;;;;;9.82;100.00;98015.19;5079578;28;20040;-87
2022/11/28 01:50:36;;;;;;;50.85;16.45;;;;;;;9.69;100.00;98000.38;5082404;28;20462;-89
2022/11/28 01:53:07;;;;;;;57.75;17.30;;;;;;;9.95;100.00;98014.25;5083581;28;20428;-87
2022/11/28 01:55:41;;;;;;;47.58;16.02;;;;;;;9.90;100.00;98014.13;5076685;28;20118;-88
2022/11/28 01:58:06;;;;;;;51.70;16.52;;;;;;;9.72;100.00;98018.28;5063482;28;20041;-87
2022/11/28 02:00:33;;;;;;;48.67;15.05;;;;;;;9.61;100.00;98018.97;5084402;28;20033;-87
2022/11/28 02:03:14;;;;;;;56.53;15.85;;;;;;;9.60;100.00;98014.75;5078025;28;20024;-86
2022/11/28 02:05:40;;;;;;;47.83;15.30;;;;;;;9.71;100.00;98016.69;5084310;28;20382;-86
2022/11/28 02:08:08;;;;;;;52.92;16.23;;;;;;;9.70;100.00;98015.88;5084370;28;20032;-86
2022/11/28 02:11:05;;;;;;;54.17;15.57;;;;;;;9.63;100.00;98023.00;5071230;28;20393;-86
2022/11/28 02:13:52;;;;;;;46.40;14.45;;;;;;;9.76;100.00;98008.97;5076227;28;20486;-86
2022/11/28 02:16:32;;;;;;;64.80;15.82;;;;;;;9.61;100.00;98011.94;5079179;28;20394;-86
2022/11/28 02:19:31;;;;;;;40.47;14.75;;;;;;;9.57;100.00;98011.53;5055909;28;20070;-88
2022/11/28 02:21:56;;;;;;;52.92;15.07;;;;;;;9.43;100.00;98018.69;5081101;28;20056;-87
2022/11/28 02:24:34;;;;;;;46.97;14.50;;;;;;;9.42;100.00;98016.28;5080173;28;20058;-88
2022/11/28 02:26:59;;;;;;;47.38;13.85;;;;;;;9.29;100.00;98018.00;5084665;28;20119;-87
2022/11/28 02:29:51;;;;;;;41.55;14.25;;;;;;;9.17;100.00;98018.88;5090518;28;20092;-88
2022/11/28 02:32:20;;;;;;;39.17;12.35;;;;;;;9.30;100.00;98013.53;5072477;28;20051;-88
2022/11/28 02:34:53;;;;;;;48.40;14.90;;;;;;;9.42;100.00;98011.03;5067658;28;20060;-87
2022/11/28 02:37:31;;;;;;;61.10;14.20;;;;;;;9.27;100.00;98016.59;5072210;28;20478;-86
2022/11/28 02:40:23;;;;;;;65.28;17.27;;;;;;;9.60;100.00;98012.13;5083144;28;20058;-87
2022/11/28 02:43:04;;;;;;;43.47;12.73;;;;;;;9.45;100.00;98010.66;5087019;28;20031;-88
2022/11/28 02:45:49;;;;;;;53.22;15.00;;;;;;;9.43;100.00;98002.16;5083562;28;20055;-86
2022/11/28 02:48:30;;;;;;;57.63;14.93;;;;;;;9.16;100.00;98012.81;5071300;28;20036;-87
2022/11/28 02:51:05;;;;;;;54.28;15.85;;;;;;;9.50;100.00;98007.38;5082134;28;20077;-87
2022/11/28 02:53:33;;;;;;;50.28;15.23;;;;;;;9.63;100.00;98001.22;5081159;28;20562;-86
2022/11/28 02:55:59;;;;;;;48.40;14.80;;;;;;;9.74;100.00;97997.91;5086853;28;20039;-86
2022/11/28 02:58:25;;;;;;;49.33;14.77;;;;;;;9.60;100.00;97996.41;5072299;28;20489;-87
2022/11/28 03:00:54;;;;;;;50.72;15.05;;;;;;;9.71;100.00;97998.34;5082829;28;20390;-86
2022/11/28 03:03:45;;;;;;;40.90;14.00;;;;;;;10.08;100.00;98003.66;5081528;28;20490;-87
2022/11/28 03:06:49;;;;;;;52.35;13.68;;;;;;;9.87;100.00;98002.22;5061364;28;20041;-87
2022/11/28 03:09:36;;;;;;;42.17;13.32;;;;;;;10.07;100.00;98003.88;5077794;28;20039;-88
2022/11/28 03:12:21;;;;;;;50.22;13.85;;;;;;;10.28;100.00;98002.66;5063970;28;20119;-87
2022/11/28 03:14:59;;;;;;;49.90;13.63;;;;;;;10.08;100.00;98003.66;5064268;28;20041;-87
2022/11/28 03:17:31;;;;;;;46.88;14.90;;;;;;;10.01;100.00;98002.91;5079126;28;20039;-86
2022/11/28 03:20:27;;;;;;;48.30;15.57;;;;;;;10.35;100.00;98011.25;5066551;28;20028;-87
2022/11/28 03:22:55;;;;;;;47.53;14.70;;;;;;;10.23;100.00;98010.38;5081509;28;20045;-87
2022/11/28 03:25:34;;;;;;;39.33;12.93;;;;;;;10.40;100.00;98000.13;5085505;28;20051;-88
2022/11/28 03:28:17;;;;;;;49.58;15.02;;;;;;;10.13;100.00;98001.19;5080979;28;20048;-86
2022/11/28 03:31:14;;;;;;;44.22;13.38;;;;;;;10.47;100.00;98005.31;5067092;28;20511;-88
2022/11/28 03:33:53;;;;;;;40.10;12.30;;;;;;;10.41;100.00;97994.66;5058730;28;20139;-88
2022/11/28 03:36:50;;;;;;;42.55;12.65;;;;;;;10.47;100.00;98000.06;5061733;28;20039;-88
2022/11/28 03:39:24;;;;;;;43.00;12.98;;;;;;;10.20;100.00;98002.94;5065858;28;20032;-86
2022/11/28 03:41:53;;;;;;;41.80;13.38;;;;;;;10.05;100.00;98006.72;5079941;28;20442;-87
2022/11/28 03:44:30;;;;;;;42.13;13.25;;;;;;;10.19;100.00;98010.00;5080712;28;20043;-85
2022/11/28 03:46:59;;;;;;;37.35;12.70;;;;;;;10.22;100.00;98003.50;5087629;28;20460;-87
2022/11/28 03:49:31;;;;;;;44.08;13.20;;;;;;;10.17;100.00;98008.63;5082540;28;20081;-88
2022/11/28 03:51:59;;;;;;;50.95;12.65;;;;;;;10.10;100.00;98016.53;5069081;28;20390;-88
2022/11/28 03:54:40;;;;;;;36.13;12.52;;;;;;;10.21;100.00;98009.78;5066427;28;20036;-88
2022/11/28 03:57:27;;;;;;;42.30;12.63;;;;;;;10.20;100.00;98010.78;5078595;28;20497;-88
2022/11/28 03:59:56;;;;;;;42.53;12.60;;;;;;;10.08;100.00;98003.66;5081423;28;20052;-87
2022/11/28 04:02:27;;;;;;;40.55;11.90;;;;;;;10.07;100.00;98001.25;5070721;28;20050;-86
2022/11/28 04:05:11;;;;;;;33.17;11.20;;;;;;;10.05;100.00;98014.59;5084186;28;20029;-89
2022/11/28 04:07:45;;;;;;;42.95;11.70;;;;;;;9.82;100.00;98010.72;5084233;28;20493;-86
2022/11/28 04:10:20;;;;;;;31.92;11.80;;;;;;;9.86;100.00;98014.56;5079063;28;20024;-87
2022/11/28 04:12:59;;;;;;;40.92;13.30;;;;;;;9.76;100.00;98013.44;5085156;28;20036;-87
2022/11/28 04:15:30;;;;;;;38.00;11.32;;;;;;;9.79;100.00;98024.28;5066797;28;20050;-88
2022/11/28 04:18:03;;;;;;;36.25;12.88;;;;;;;9.71;100.00;98027.16;5084580;28;20055;-87
2022/11/28 04:20:37;;;;;;;36.80;12.23;;;;;;;9.85;100.00;98026.06;5064227;28;20081;-87
2022/11/28 04:23:09;;;;;;;45.45;13.32;;;;;;;9.80;100.00;98020.63;5068160;28;20028;-88
2022/11/28 04:25:39;;;;;;;47.88;14.38;;;;;;;9.71;100.00;98027.97;5079395;28;20036;-88
2022/11/28 04:28:10;;;;;;;45.75;13.15;;;;;;;9.58;100.00;98025.47;5082436;28;20050;-88
2022/11/28 04:30:38;;;;;;;47.08;13.15;;;;;;;9.62;100.00;98028.44;5080194;28;20044;-86
2022/11/28 04:33:08;;;;;;;47.67;15.07;;;;;;;9.68;100.00;98038.88;5079361;28;20074;-87
2022/11/28 04:35:43;;;;;;;37.35;12.85;;;;;;;9.76;100.00;98034.41;5083282;28;20035;-88
2022/11/28 04:38:10;;;;;;;46.65;13.57;;;;;;;9.77;100.00;98038.63;5067840;28;20047;-87
2022/11/28 04:41:05;;;;;;;31.83;12.20;;;;;;;9.84;100.00;98034.13;5085036;28;20099;-86
2022/11/28 04:43:41;;;;;;;40.42;13.15;;;;;;;9.82;100.00;98042.19;5080004;28;20040;-86
2022/11/28 04:46:13;;;;;;;39.75;12.98;;;;;;;9.77;100.00;98044.66;5082793;28;20119;-86
2022/11/28 04:48:40;;;;;;;32.50;12.68;;;;;;;9.62;100.00;98031.88;5065427;28;20031;-86
2022/11/28 04:51:21;;;;;;;38.20;13.30;;;;;;;9.71;100.00;98050.75;5066669;28;20081;-87
2022/11/28 04:53:55;;;;;;;42.40;14.02;;;;;;;9.61;100.00;98038.13;5064924;28;20528;-87
2022/11/28 04:56:29;;;;;;;39.60;13.95;;;;;;;9.67;100.00;98041.72;5085123;28;20028;-87
2022/11/28 04:58:57;;;;;;;44.35;13.25;;;;;;;9.38;100.00;98041.28;5063288;28;20031;-87
2022/11/28 05:01:27;;;;;;;37.92;12.77;;;;;;;9.53;100.00;98033.94;5067321;28;20028;-86
2022/11/28 05:03:54;;;;;;;37.33;12.75;;;;;;;9.65;100.00;98038.50;5081704;28;20115;-87
2022/11/28 05:06:25;;;;;;;42.65;12.75;;;;;;;9.77;100.00;98041.25;5083423;28;20103;-86
2022/11/28 05:08:51;;;;;;;33.28;13.73;;;;;;;9.70;100.00;98043.91;5081735;28;20486;-86
2022/11/28 05:11:16;;;;;;;40.47;14.68;;;;;;;9.49;100.00;98026.72;5068102;28;20028;-86
2022/11/28 05:13:42;;;;;;;41.50;15.25;;;;;;;9.76;100.00;98042.25;5084170;28;20035;-88
2022/11/28 05:16:11;;;;;;;43.47;12.93;;;;;;;9.83;100.00;98046.44;5081476;28;20085;-88
2022/11/28 05:18:38;;;;;;;39.28;13.05;;;;;;;9.71;100.00;98045.50;5083487;28;20044;-87
2022/11/28 05:21:07;;;;;;;47.85;13.85;;;;;;;9.87;100.00;98049.41;5079545;28;20028;-87
2022/11/28 05:23:42;;;;;;;49.80;15.27;;;;;;;9.85;100.00;98038.34;5088516;28;20020;-85
2022/11/28 05:26:13;;;;;;;41.55;12.90;;;;;;;9.86;100.00;98043.38;5076003;28;20135;-86
2022/11/28 05:28:42;;;;;;;41.35;13.73;;;;;;;9.78;100.00;98030.53;5071767;28;20444;-87
2022/11/28 05:31:08;;;;;;;37.90;13.13;;;;;;;9.84;100.00;98034.94;5060660;28;20555;-88
2022/11/28 05:33:34;;;;;;;37.08;13.27;;;;;;;9.77;100.00;98031.53;5079505;28;20128;-85
2022/11/28 05:36:10;;;;;;;37.00;12.63;;;;;;;9.86;100.00;98032.09;5082466;28;20119;-87
2022/11/28 05:38:37;;;;;;;37.42;12.45;;;;;;;9.78;100.00;98025.28;5078764;28;20031;-88
2022/11/28 05:41:03;;;;;;;40.50;13.15;;;;;;;9.78;100.00;98027.91;5082138;28;20024;-86
2022/11/28 05:43:29;;;;;;;45.13;13.70;;;;;;;9.75;100.00;98015.25;5084317;28;20020;-87
2022/11/28 05:45:55;;;;;;;41.53;15.00;;;;;;;9.82;100.00;98021.22;5067291;28;20028;-86
2022/11/28 05:48:22;;;;;;;41.42;14.98;;;;;;;9.91;100.00;98013.88;5060524;28;20547;-86
2022/11/28 05:50:51;;;;;;;48.25;14.82;;;;;;;9.66;100.00;98016.53;5079489;28;20078;-86
2022/11/28 05:53:18;;;;;;;40.80;14.35;;;;;;;9.68;100.00;98009.25;5083299;28;20029;-86
2022/11/28 05:55:44;;;;;;;45.25;14.32;;;;;;;9.79;100.00;98026.88;5062811;28;20470;-88
2022/11/28 05:58:09;;;;;;;46.95;14.68;;;;;;;9.82;100.00;98015.97;5080567;28;20028;-86
2022/11/28 06:00:35;;;;;;;48.13;14.60;;;;;;;9.85;100.00;98020.00;5064216;28;20043;-89
2022/11/28 06:03:01;;;;;;;42.03;12.82;;;;;;;9.79;100.00;98019.03;5080901;28;20024;-87
2022/11/28 06:05:26;;;;;;;40.10;14.20;;;;;;;9.74;100.00;98020.72;5082475;28;20028;-86
2022/11/28 06:07:52;;;;;;;37.85;12.65;;;;;;;9.71;100.00;98027.16;5084916;28;20025;-85
2022/11/28 06:10:18;;;;;;;33.17;12.07;;;;;;;9.67;100.00;98013.69;5081332;28;20028;-85
2022/11/28 06:12:44;;;;;;;39.50;13.02;;;;;;;9.61;100.00;98017.16;5080785;28;20028;-86
2022/11/28 06:15:10;;;;;;;47.55;14.60;;;;;;;9.51;100.00;98016.81;5080630;28;20434;-85
2022/11/28 06:17:35;;;;;;;43.63;13.13;;;;;;;9.61;100.00;98024.22;5082867;28;20109;-86
2022/11/28 06:20:01;;;;;;;55.38;15.13;;;;;;;9.37;100.00;98009.09;5083295;28;20507;-86
2022/11/28 06:22:26;;;;;;;42.40;13.63;;;;;;;9.50;100.00;98016.03;5079896;28;20043;-86
2022/11/28 06:24:52;;;;;;;42.13;13.55;;;;;;;9.50;100.00;98023.91;5078169;28;20059;-86
2022/11/28 06:27:19;;;;;;;37.65;13.20;;;;;;;9.46;100.00;98022.72;5081436;28;20028;-87
2022/11/28 06:29:44;;;;;;;35.53;12.57;;;;;;;9.38;100.00;98028.19;5084913;28;20693;-85
2022/11/28 06:32:10;;;;;;;35.97;13.23;;;;;;;9.36;100.00;98038.09;5077030;28;20040;-85
2022/11/28 06:34:36;;;;;;;40.65;13.68;;;;;;;9.23;100.00;98029.28;5079026;28;20475;-86
2022/11/28 06:37:01;;;;;;;36.28;13.13;;;;;;;9.17;100.00;98034.59;5068440;28;20032;-87
2022/11/28 06:39:27;;;;;;;41.75;13.65;;;;;;;9.07;100.00;98029.81;5074183;28;20078;-86
2022/11/28 06:41:52;;;;;;;56.70;14.68;;;;;;;8.99;100.00;98031.63;5080525;28;20032;-86
2022/11/28 06:44:18;;;;;;;48.42;14.18;;;;;;;9.04;100.00;98030.19;5081162;28;20032;-86
2022/11/28 06:46:44;;;;;;;42.42;12.77;;;;;;;9.00;100.00;98035.06;5081823;28;20050;-87
2022/11/28 06:49:12;;;;;;;40.67;13.52;;;;;;;9.05;100.00;98042.31;5079767;28;20103;-86
2022/11/28 06:51:39;;;;;;;29.88;13.05;;;;;;;8.96;100.00;98039.13;5083919;28;20029;-85
2022/11/28 06:54:06;;;;;;;32.80;12.77;;;;;;;9.02;100.00;98042.69;5080156;28;20375;-86
2022/11/28 06:56:31;;;;;;;33.33;12.80;;;;;;;9.06;100.00;98044.69;5064623;28;20087;-86
2022/11/28 06:58:58;;;;;;;43.92;14.20;;;;;;;9.13;100.00;98044.66;5080947;28;20477;-88
2022/11/28 07:01:26;;;;;;;66.45;16.33;;;;;;;9.24;100.00;98051.06;5086849;28;20032;-86
2022/11/28 07:03:53;;;;;;;54.15;15.85;;;;;;;9.38;100.00;98062.25;5080951;28;20077;-86
2022/11/28 07:06:20;;;;;;;92.30;25.13;;;;;;;9.49;100.00;98058.97;5076219;28;20029;-86
2022/11/28 07:08:46;;;;;;;55.17;17.00;;;;;;;9.47;100.00;98061.00;5078357;28;20481;-85
2022/11/28 07:11:13;;;;;;;52.25;17.30;;;;;;;9.72;100.00;98071.50;5086619;28;20024;-85
2022/11/28 07:13:39;;;;;;;50.72;18.88;;;;;;;9.94;100.00;98075.56;5081034;28;20047;-86
2022/11/28 07:16:06;;;;;;;47.30;17.85;;;;;;;9.89;100.00;98078.84;5081397;28;20089;-86
2022/11/28 07:18:32;;;;;;;52.95;18.48;;;;;;;10.02;100.00;98087.63;5078449;28;20040;-85
2022/11/28 07:20:58;;;;;;;53.95;18.15;;;;;;;9.99;100.00;98088.84;5082857;28;20086;-85
2022/11/28 07:23:25;;;;;;;45.58;17.13;;;;;;;9.80;100.00;98080.13;5060961;28;20036;-85
2022/11/28 07:25:50;;;;;;;49.83;15.70;;;;;;;9.60;100.00;98090.72;5083289;28;20037;-85
2022/11/28 07:28:16;;;;;;;48.00;15.68;;;;;;;9.79;100.00;98084.56;5079900;28;20091;-85
2022/11/28 07:30:42;;;;;;;42.25;15.77;;;;;;;9.98;100.00;98087.22;5081775;28;20048;-85
2022/11/28 07:33:08;;;;;;;41.83;14.65;;;;;;;9.70;100.00;98081.38;5079469;28;20052;-86
2022/11/28 07:35:33;;;;;;;32.53;14.02;;;;;;;9.83;100.00;98080.50;5083417;28;20028;-86
2022/11/28 07:37:59;;;;;;;34.78;13.02;;;;;;;9.79;100.00;98070.66;5079040;28;20077;-86
2022/11/28 07:40:52;;;;;;;30.25;11.75;;;;;;;9.64;100.00;98070.97;5078898;28;20390;-85
2022/11/28 07:43:47;;;;;;;38.05;13.18;;;;;;;9.51;100.00;98070.03;5092171;28;20039;-86
2022/11/28 07:46:45;;;;;;;34.03;10.73;;;;;;;9.66;100.00;98085.44;5062413;28;20040;-89
2022/11/28 07:49:57;;;;;;;41.15;12.70;;;;;;;9.54;100.00;98074.84;5061371;28;20042;-87
2022/11/28 07:52:56;;;;;;;35.33;12.20;;;;;;;9.34;100.00;98055.84;5052731;28;20032;-86
2022/11/28 07:55:28;;;;;;;26.55;11.80;;;;;;;9.54;100.00;98077.47;5061472;28;20037;-90
2022/11/28 07:58:12;;;;;;;34.15;12.82;;;;;;;9.55;100.00;98079.06;5063775;28;20031;-86
2022/11/28 08:00:38;;;;;;;40.20;12.52;;;;;;;9.46;100.00;98096.06;5085680;28;20031;-86
2022/11/28 08:03:04;;;;;;;32.05;12.07;;;;;;;9.50;100.00;98094.63;5063818;28;20032;-89
2022/11/28 08:05:30;;;;;;;30.42;11.07;;;;;;;9.80;100.00;98099.25;5075799;28;20534;-86
2022/11/28 08:07:55;;;;;;;35.20;13.05;;;;;;;9.64;100.00;98097.19;5081178;28;20132;-86
2022/11/28 08:10:21;;;;;;;39.67;13.00;;;;;;;9.70;100.00;98112.03;5064488;28;20047;-87
2022/11/28 08:12:50;;;;;;;48.53;12.40;;;;;;;9.68;100.00;98100.97;5079943;28;20131;-84
2022/11/28 08:15:15;;;;;;;36.80;13.18;;;;;;;9.86;100.00;98097.59;5057602;28;20024;-88
2022/11/28 08:17:41;;;;;;;32.25;11.80;;;;;;;9.86;100.00;98101.03;5066990;28;20111;-87
2022/11/28 08:20:08;;;;;;;34.63;13.23;;;;;;;9.67;100.00;98104.59;5064512;28;20032;-87
2022/11/28 08:22:33;;;;;;;37.58;12.10;;;;;;;9.69;100.00;98100.75;5064167;28;20401;-87
2022/11/28 08:24:59;;;;;;;30.30;11.90;;;;;;;9.64;100.00;98097.97;5081985;28;20030;-86
2022/11/28 08:27:24;;;;;;;32.85;10.38;;;;;;;9.46;100.00;98111.78;5080161;28;20028;-86
2022/11/28 08:29:50;;;;;;;29.25;11.57;;;;;;;9.57;100.00;98105.84;5065773;28;20028;-85
2022/11/28 08:32:16;;;;;;;38.63;11.50;;;;;;;9.34;100.00;98114.25;5084729;28;20045;-85
2022/11/28 08:34:45;;;;;;;33.17;10.73;;;;;;;9.54;100.00;98116.75;5063679;28;20029;-85
2022/11/28 08:37:10;;;;;;;40.17;12.38;;;;;;;9.52;100.00;98110.94;5083359;28;20047;-86
2022/11/28 08:39:36;;;;;;;31.52;12.40;;;;;;;9.56;100.00;98112.13;5091549;28;20028;-87
2022/11/28 08:42:01;;;;;;;30.27;11.45;;;;;;;9.56;100.00;98100.84;5082673;28;20044;-86
2022/11/28 08:44:27;;;;;;;30.15;11.50;;;;;;;9.61;100.00;98108.06;5078725;28;20057;-86
2022/11/28 08:46:53;;;;;;;31.98;11.40;;;;;;;9.67;100.00;98102.00;5083055;28;20032;-86
2022/11/28 08:49:20;;;;;;;27.52;10.45;;;;;;;9.63;100.00;98106.03;5064258;28;20478;-88
2022/11/28 08:51:45;;;;;;;32.22;11.90;;;;;;;9.69;100.00;98105.19;5090027;28;20031;-85
2022/11/28 08:54:11;;;;;;;25.70;11.10;;;;;;;9.49;100.00;98118.41;5065414;28;20056;-85
2022/11/28 08:56:36;;;;;;;25.58;10.00;;;;;;;9.70;100.00;98114.66;5085040;28;20397;-86
2022/11/28 08:59:02;;;;;;;25.45;10.88;;;;;;;9.80;100.00;98125.47;5083767;28;20031;-84
2022/11/28 09:01:29;;;;;;;29.13;10.43;;;;;;;10.05;100.00;98124.72;5060493;28;20044;-84
2022/11/28 09:03:55;;;;;;;31.65;11.68;;;;;;;10.18;100.00;98120.34;5087946;28;20028;-83
2022/11/28 09:06:22;;;;;;;33.47;11.75;;;;;;;10.40;100.00;98121.59;5084013;28;20040;-85
2022/11/28 09:08:48;;;;;;;28.98;10.85;;;;;;;10.40;100.00;98113.72;5080776;28;20055;-84
2022/11/28 09:11:17;;;;;;;31.90;11.85;;;;;;;10.60;100.00;98125.84;5079101;28;20093;-85
2022/11/28 09:13:43;;;;;;;35.67;12.60;;;;;;;10.56;100.00;98125.50;5090785;28;20094;-86
2022/11/28 09:16:09;;;;;;;25.90;11.43;;;;;;;10.86;100.00;98119.53;5083326;28;20120;-85
2022/11/28 09:18:35;;;;;;;30.38;11.15;;;;;;;11.00;100.00;98114.97;5064163;28;20032;-87
2022/11/28 09:21:03;;;;;;;27.83;10.68;;;;;;;11.24;100.00;98117.69;5092337;28;20028;-87
2022/11/28 09:23:29;;;;;;;27.73;10.30;;;;;;;11.15;100.00;98121.63;5091073;28;20077;-85
2022/11/28 09:25:56;;;;;;;23.50;9.20;;;;;;;10.66;100.00;98117.13;5081959;28;20475;-87
2022/11/28 09:28:23;;;;;;;22.90;9.38;;;;;;;10.68;100.00;98125.59;5079987;28;20029;-86
2022/11/28 09:30:48;;;;;;;23.88;9.15;;;;;;;11.07;100.00;98117.47;5084883;28;20048;-86
2022/11/28 09:33:14;;;;;;;22.42;9.45;;;;;;;11.03;100.00;98129.44;5090649;28;20509;-83
2022/11/28 09:35:40;;;;;;;21.58;9.30;;;;;;;11.06;100.00;98133.47;5089993;28;20102;-86
2022/11/28 09:38:06;;;;;;;22.15;9.50;;;;;;;11.37;100.00;98131.66;5070166;28;20040;-85
2022/11/28 09:40:38;;;;;;;22.08;9.88;;;;;;;11.08;100.00;98139.31;5076752;28;20104;-84
2022/11/28 09:43:34;;;;;;;25.98;9.57;;;;;;;11.44;100.00;98150.78;5066442;28;20390;-83
2022/11/28 09:46:03;;;;;;;20.35;8.93;;;;;;;11.75;100.00;98151.56;5066728;28;20025;-84
2022/11/28 09:48:35;;;;;;;19.92;8.18;;;;;;;11.82;100.00;98152.31;5082158;28;20485;-84
2022/11/28 09:51:24;;;;;;;16.30;6.93;;;;;;;11.58;100.00;98157.47;5089097;28;20035;-84
2022/11/28 09:54:21;;;;;;;39.85;15.93;;;;;;;11.24;100.00;98161.53;5085532;28;20119;-82
2022/11/28 09:56:49;;;;;;;19.10;8.75;;;;;;;10.74;100.00;98165.09;5084842;28;20114;-83
2022/11/28 09:59:29;;;;;;;14.80;6.78;;;;;;;10.96;100.00;98170.75;5084635;28;20039;-82
2022/11/28 10:01:54;;;;;;;23.60;8.20;;;;;;;10.89;100.00;98170.81;5081826;28;20020;-83
2022/11/28 10:04:44;;;;;;;14.43;7.55;;;;;;;11.36;100.00;98165.03;5084069;28;20082;-83
2022/11/28 10:07:44;;;;;;;17.45;7.88;;;;;;;11.20;100.00;98169.06;5080307;28;20035;-83
2022/11/28 10:10:16;;;;;;;14.40;7.47;;;;;;;11.33;100.00;98172.56;5080311;28;20028;-84
2022/11/28 10:13:03;;;;;;;21.70;7.90;;;;;;;10.94;100.00;98184.09;5065920;28;20047;-83
2022/11/28 10:15:57;;;;;;;18.23;8.32;;;;;;;11.11;100.00;98183.50;5084919;28;20024;-84
2022/11/28 10:18:23;;;;;;;;;;;;;;;11.03;100.00;98179.34;5062767;28;20032;-83
2022/11/28 10:20:53;;;;;;;18.60;8.13;;;;;;;11.27;100.00;98185.56;5079826;28;19987;-85
2022/11/28 10:23:25;;;;;;;17.48;7.60;;;;;;;11.39;100.00;98190.06;5084703;28;20066;-83
2022/11/28 10:26:05;;;;;;;25.60;7.68;;;;;;;11.35;100.00;98186.25;5085590;28;20036;-82
2022/11/28 10:28:35;;;;;;;21.88;7.60;;;;;;;10.78;100.00;98195.13;5087486;28;20039;-83
2022/11/28 10:31:32;;;;;;;19.58;8.52;;;;;;;10.63;100.00;98188.44;5087516;28;20055;-84
2022/11/28 10:34:06;;;;;;;19.92;7.60;;;;;;;11.16;100.00;98178.41;5082455;28;20089;-85
2022/11/28 10:36:54;;;;;;;;;;;;;;;11.18;100.00;98184.22;5080870;28;20028;-85
2022/11/28 10:39:24;;;;;;;22.58;8.25;;;;;;;11.07;100.00;98177.09;5080689;28;19926;-85
2022/11/28 10:42:37;;;;;;;19.73;8.20;;;;;;;11.07;100.00;98192.84;5082548;28;20089;-85
2022/11/28 10:45:26;;;;;;;23.50;8.38;;;;;;;11.10;100.00;98174.84;5069758;28;20036;-85
2022/11/28 10:47:55;;;;;;;18.85;7.50;;;;;;;11.63;100.00;98190.19;5081003;28;20039;-89
2022/11/28 10:50:35;;;;;;;23.23;9.00;;;;;;;11.83;100.00;98195.16;5084798;28;20052;-90
2022/11/28 10:53:33;;;;;;;14.68;7.13;;;;;;;11.97;100.00;98201.03;5078298;28;20524;-87
2022/11/28 10:56:04;;;;;;;16.42;8.10;;;;;;;12.12;100.00;98196.19;5080425;28;20490;-88
2022/11/28 10:58:48;;;;;;;19.50;8.05;;;;;;;11.89;100.00;98204.00;5078063;28;20409;-88
2022/11/28 11:01:14;;;;;;;19.27;7.32;;;;;;;11.61;100.00;98190.41;5082899;28;20058;-86
2022/11/28 11:03:40;;;;;;;22.33;8.25;;;;;;;11.71;100.00;98193.31;5085761;28;20052;-83
2022/11/28 11:06:06;;;;;;;18.08;7.70;;;;;;;11.72;100.00;98196.72;5086613;28;20028;-85
2022/11/28 11:08:39;;;;;;;17.88;7.78;;;;;;;11.65;100.00;98194.19;5085428;28;20032;-85
2022/11/28 11:11:14;;;;;;;20.60;7.80;;;;;;;11.65;100.00;98198.66;5077337;28;20028;-86
2022/11/28 11:14:08;;;;;;;18.17;7.57;;;;;;;11.70;100.00;98198.78;5076044;28;20437;-86
2022/11/28 11:16:54;;;;;;;;;;;;;;;11.57;100.00;98200.53;5079224;28;20024;-86
2022/11/28 11:19:37;;;;;;;28.05;8.70;;;;;;;11.56;100.00;98195.53;5079279;28;19962;-89
2022/11/28 11:22:21;;;;;;;13.60;6.47;;;;;;;11.50;100.00;98202.47;5063459;28;20032;-86
2022/11/28 11:25:11;;;;;;;23.60;7.22;;;;;;;11.45;100.00;98210.22;5080821;28;20024;-87
2022/11/28 11:27:45;;;;;;;23.10;8.40;;;;;;;11.33;100.00;98219.84;5085934;28;20036;-87
2022/11/28 11:30:32;;;;;;;20.05;6.82;;;;;;;11.42;100.00;98223.78;5063546;28;20043;-84
2022/11/28 11:33:00;;;;;;;20.15;7.45;;;;;;;11.45;100.00;98215.47;5084556;28;20059;-89
2022/11/28 11:35:34;;;;;;;17.75;7.45;;;;;;;11.46;100.00;98218.88;5080909;28;20036;-87
2022/11/28 11:38:18;;;;;;;;;;;;;;;11.53;100.00;98222.25;5075690;28;20118;-85